createdAt,value
2022-10-13T00:00:46.963Z,23.20
2022-10-13T00:03:32.776Z,17.98
2022-10-13T00:06:24.514Z,27.15
2022-10-13T00:09:10.202Z,24.88
2022-10-13T00:11:58.786Z,17.83
2022-10-13T00:14:44.294Z,17.67
2022-10-13T00:17:29.592Z,17.83
2022-10-13T00:20:14.980Z,19.52
2022-10-13T00:23:00.504Z,17.75
2022-10-13T00:25:49.014Z,16.75
2022-10-13T00:28:34.986Z,18.83
2022-10-13T00:31:23.091Z,24.98
2022-10-13T00:34:09.292Z,25.05
2022-10-13T00:36:54.476Z,27.52
2022-10-13T00:39:39.904Z,21.52
2022-10-13T00:42:27.262Z,22.92
2022-10-13T00:45:27.243Z,18.92
2022-10-13T00:48:13.479Z,15.80
2022-10-13T00:50:59.016Z,18.17
2022-10-13T00:53:47.619Z,20.40
2022-10-13T00:56:35.712Z,14.82
2022-10-13T00:59:27.473Z,14.38
2022-10-13T01:02:12.983Z,16.02
2022-10-13T01:04:59.497Z,19.98
2022-10-13T01:07:48.913Z,21.42
2022-10-13T01:10:55.922Z,16.40
2022-10-13T01:13:56.400Z,15.00
2022-10-13T01:17:00.032Z,20.30
2022-10-13T01:20:30.579Z,17.02
2022-10-13T01:23:47.111Z,16.35
2022-10-13T01:27:09.635Z,14.90
2022-10-13T01:33:01.228Z,10.85
2022-10-13T01:36:05.594Z,16.73
2022-10-13T01:39:06.865Z,20.25
2022-10-13T01:41:57.301Z,14.32
2022-10-13T01:44:49.313Z,18.75
2022-10-13T01:47:37.511Z,11.18
2022-10-13T01:50:23.571Z,13.75
2022-10-13T01:53:12.001Z,18.20
2022-10-13T01:55:59.914Z,12.23
2022-10-13T01:58:46.435Z,20.95
2022-10-13T02:01:35.026Z,16.55
2022-10-13T02:04:20.434Z,16.02
2022-10-13T02:07:16.073Z,14.63
2022-10-13T02:10:13.607Z,18.83
2022-10-13T02:13:05.139Z,15.02
2022-10-13T02:15:55.491Z,24.10
2022-10-13T02:18:41.498Z,15.55
2022-10-13T02:21:28.787Z,23.38
2022-10-13T02:24:16.270Z,12.68
2022-10-13T02:27:02.251Z,18.83
2022-10-13T02:29:52.591Z,15.60
2022-10-13T02:32:38.955Z,20.65
2022-10-13T02:35:24.205Z,11.27
2022-10-13T02:38:10.694Z,14.80
2022-10-13T02:40:56.372Z,14.80
2022-10-13T02:43:42.772Z,14.82
2022-10-13T02:46:28.371Z,13.32
2022-10-13T02:49:13.915Z,15.23
2022-10-13T02:51:59.178Z,11.38
2022-10-13T02:54:44.722Z,20.27
2022-10-13T02:57:30.378Z,17.35
2022-10-13T03:00:17.846Z,16.65
2022-10-13T03:03:03.752Z,21.63
2022-10-13T03:05:49.397Z,18.52
2022-10-13T03:08:35.970Z,14.35
2022-10-13T03:11:21.738Z,15.75
2022-10-13T03:14:07.085Z,14.80
2022-10-13T03:16:52.398Z,9.50
2022-10-13T03:19:38.709Z,14.93
2022-10-13T03:22:24.479Z,10.18
2022-10-13T03:25:10.724Z,14.60
2022-10-13T03:27:59.339Z,8.27
2022-10-13T03:30:44.814Z,13.15
2022-10-13T03:33:30.419Z,10.48
2022-10-13T03:36:16.353Z,20.52
2022-10-13T03:39:04.050Z,7.07
2022-10-13T03:41:50.022Z,10.38
2022-10-13T03:44:35.614Z,13.63
2022-10-13T03:47:21.060Z,9.82
2022-10-13T03:50:07.198Z,13.38
2022-10-13T03:52:52.868Z,19.88
2022-10-13T03:55:38.266Z,14.15
2022-10-13T03:58:25.347Z,16.77
2022-10-13T04:01:14.304Z,17.00
2022-10-13T04:04:02.569Z,15.55
2022-10-13T04:06:47.997Z,14.50
2022-10-13T04:09:33.752Z,13.65
2022-10-13T04:12:21.095Z,15.55
2022-10-13T04:15:07.835Z,11.43
2022-10-13T04:17:53.117Z,11.07
2022-10-13T04:20:39.845Z,11.18
2022-10-13T04:23:25.663Z,9.38
2022-10-13T04:26:20.609Z,13.75
2022-10-13T04:29:08.066Z,8.77
2022-10-13T04:31:53.775Z,9.57
2022-10-13T04:34:39.278Z,9.48
2022-10-13T04:37:24.875Z,11.70
2022-10-13T04:40:10.949Z,11.45
2022-10-13T04:42:56.531Z,9.30
2022-10-13T04:45:42.058Z,7.40
2022-10-13T04:48:27.991Z,8.00
2022-10-13T04:51:19.995Z,14.60
2022-10-13T04:54:05.731Z,13.73
2022-10-13T04:56:51.106Z,10.50
2022-10-13T04:59:36.374Z,10.18
2022-10-13T05:02:22.612Z,9.57
2022-10-13T05:05:08.557Z,14.13
2022-10-13T05:07:54.281Z,9.75
2022-10-13T05:10:39.673Z,8.77
2022-10-13T05:13:26.616Z,9.65
2022-10-13T05:16:18.299Z,11.82
2022-10-13T05:19:04.035Z,12.25
2022-10-13T05:21:49.565Z,9.23
2022-10-13T05:24:38.652Z,12.95
2022-10-13T05:27:24.255Z,9.93
2022-10-13T05:30:10.387Z,10.55
2022-10-13T05:32:55.705Z,9.27
2022-10-13T05:35:41.934Z,7.63
2022-10-13T05:38:27.318Z,9.52
2022-10-13T05:41:14.654Z,5.43
2022-10-13T05:44:02.606Z,7.70
2022-10-13T05:46:47.974Z,8.90
2022-10-13T05:49:36.466Z,8.73
2022-10-13T05:52:24.501Z,8.50
2022-10-13T05:55:15.154Z,9.82
2022-10-13T05:58:02.412Z,7.95
2022-10-13T06:00:49.062Z,12.68
2022-10-13T06:03:35.567Z,6.63
2022-10-13T06:06:25.806Z,11.43
2022-10-13T06:09:15.434Z,14.50
2022-10-13T06:12:01.964Z,11.93
2022-10-13T06:14:47.666Z,6.38
2022-10-13T06:17:37.331Z,11.65
2022-10-13T06:20:23.108Z,7.93
2022-10-13T06:23:08.763Z,5.75
2022-10-13T06:25:54.690Z,9.00
2022-10-13T06:28:40.405Z,13.27
2022-10-13T06:31:26.421Z,5.13
2022-10-13T06:34:12.682Z,11.45
2022-10-13T06:37:02.593Z,14.15
2022-10-13T06:39:48.076Z,15.23
2022-10-13T06:42:34.761Z,9.13
2022-10-13T06:45:29.530Z,12.00
2022-10-13T06:48:15.002Z,7.93
2022-10-13T06:51:09.147Z,10.82
2022-10-13T06:53:57.042Z,12.43
2022-10-13T06:56:44.012Z,9.45
2022-10-13T06:59:29.492Z,14.05
2022-10-13T07:02:14.979Z,19.10
2022-10-13T07:05:00.632Z,11.35
2022-10-13T07:07:46.520Z,11.02
2022-10-13T07:10:31.870Z,10.70
2022-10-13T07:13:17.392Z,15.57
2022-10-13T07:16:04.447Z,20.00
2022-10-13T07:18:50.885Z,12.77
2022-10-13T07:21:36.933Z,13.35
2022-10-13T07:24:22.938Z,6.93
2022-10-13T07:27:08.303Z,11.38
2022-10-13T07:29:53.743Z,13.35
2022-10-13T07:32:42.232Z,11.38
2022-10-13T07:35:30.669Z,8.27
2022-10-13T07:38:16.804Z,11.80
2022-10-13T07:41:08.817Z,12.10
2022-10-13T07:43:55.738Z,11.68
2022-10-13T07:46:41.055Z,10.88
2022-10-13T07:49:26.446Z,8.30
2022-10-13T07:52:12.273Z,8.80
2022-10-13T07:54:57.778Z,9.63
2022-10-13T07:57:43.051Z,10.50
2022-10-13T08:00:28.952Z,9.38
2022-10-13T08:03:14.157Z,12.70
2022-10-13T08:06:00.674Z,6.30
2022-10-13T08:08:46.434Z,5.13
2022-10-13T08:11:35.419Z,8.80
2022-10-13T08:14:21.456Z,10.45
2022-10-13T08:17:06.945Z,10.85
2022-10-13T08:19:52.320Z,14.50
2022-10-13T08:22:38.305Z,12.98
2022-10-13T08:25:23.515Z,12.13
2022-10-13T08:28:19.014Z,24.45
2022-10-13T08:31:04.641Z,17.38
2022-10-13T08:33:51.330Z,14.82
2022-10-13T08:36:37.830Z,21.25
2022-10-13T08:39:24.639Z,16.27
2022-10-13T08:42:22.492Z,22.40
2022-10-13T08:45:36.316Z,26.95
2022-10-13T08:48:24.718Z,15.93
2022-10-13T08:51:13.262Z,19.40
2022-10-13T08:54:00.032Z,21.92
2022-10-13T08:56:50.093Z,24.73
2022-10-13T08:59:35.666Z,14.98
2022-10-13T09:02:31.922Z,24.73
2022-10-13T09:05:27.984Z,12.25
2022-10-13T09:08:21.285Z,22.80
2022-10-13T09:11:06.839Z,18.92
2022-10-13T09:13:58.181Z,17.63
2022-10-13T09:16:45.353Z,12.77
2022-10-13T09:19:36.744Z,18.65
2022-10-13T09:22:30.260Z,25.52
2022-10-13T09:25:20.576Z,17.17
2022-10-13T09:28:15.900Z,15.07
2022-10-13T09:31:25.603Z,23.02
2022-10-13T09:34:20.121Z,16.17
2022-10-13T09:37:10.380Z,18.98
2022-10-13T09:40:19.722Z,13.43
2022-10-13T09:43:20.648Z,23.38
2022-10-13T09:46:28.668Z,18.00
2022-10-13T09:49:40.062Z,22.95
2022-10-13T09:52:25.576Z,17.60
2022-10-13T09:55:34.102Z,15.18
2022-10-13T09:58:28.487Z,19.95
2022-10-13T10:01:23.262Z,19.77
2022-10-13T10:04:14.646Z,17.58
2022-10-13T10:07:09.918Z,10.18
2022-10-13T10:10:01.821Z,18.55
2022-10-13T10:12:47.797Z,11.75
2022-10-13T10:15:49.803Z,15.05
2022-10-13T10:18:45.258Z,7.13
2022-10-13T10:21:43.979Z,16.77
2022-10-13T10:24:53.746Z,8.40
2022-10-13T10:27:46.164Z,12.55
2022-10-13T10:30:37.935Z,12.35
2022-10-13T10:33:43.113Z,12.10
2022-10-13T10:37:06.450Z,10.30
2022-10-13T10:40:01.028Z,8.68
2022-10-13T10:43:13.346Z,10.13
2022-10-13T10:48:50.466Z,17.25
2022-10-13T10:51:38.095Z,12.52
2022-10-13T10:55:18.538Z,11.10
2022-10-13T10:58:20.727Z,8.65
2022-10-13T11:01:16.376Z,14.90
2022-10-13T11:04:40.626Z,11.48
2022-10-13T11:07:26.156Z,14.30
2022-10-13T11:10:16.411Z,12.98
2022-10-13T11:13:02.075Z,11.82
2022-10-13T11:15:48.062Z,6.68
2022-10-13T11:18:55.078Z,6.20
2022-10-13T11:22:16.008Z,8.23
2022-10-13T11:25:43.331Z,8.57
2022-10-13T11:28:41.069Z,11.05
2022-10-13T11:31:47.196Z,11.10
2022-10-13T11:34:33.044Z,15.38
2022-10-13T11:37:18.810Z,14.18
2022-10-13T11:40:22.891Z,9.57
2022-10-13T11:43:27.115Z,10.98
2022-10-13T11:46:19.672Z,12.50
2022-10-13T11:49:40.681Z,8.18
2022-10-13T11:52:59.856Z,10.10
2022-10-13T11:55:55.701Z,7.40
2022-10-13T11:58:42.763Z,7.72
2022-10-13T12:01:28.726Z,8.27
2022-10-13T12:04:15.791Z,11.70
2022-10-13T12:07:04.747Z,7.80
2022-10-13T12:09:52.339Z,5.70
2022-10-13T12:12:48.037Z,8.23
2022-10-13T12:15:43.561Z,12.23
2022-10-13T12:18:34.851Z,4.05
2022-10-13T12:21:22.666Z,10.35
2022-10-13T12:24:10.070Z,5.85
2022-10-13T12:26:57.043Z,2.75
2022-10-13T12:29:43.636Z,7.90
2022-10-13T12:32:32.259Z,8.13
2022-10-13T12:35:19.315Z,14.10
2022-10-13T12:38:21.170Z,9.95
2022-10-13T12:41:06.672Z,14.60
2022-10-13T12:43:53.391Z,9.05
2022-10-13T12:46:46.076Z,6.88
2022-10-13T12:49:36.300Z,12.25
2022-10-13T12:52:25.376Z,9.65
2022-10-13T12:55:19.468Z,12.48
2022-10-13T12:58:04.934Z,11.77
2022-10-13T13:01:09.477Z,4.47
2022-10-13T13:04:27.682Z,7.10
2022-10-13T13:07:35.701Z,8.90
2022-10-13T13:10:21.433Z,5.82
2022-10-13T13:13:15.241Z,11.13
2022-10-13T13:16:21.866Z,5.50
2022-10-13T13:19:22.798Z,6.45
2022-10-13T13:22:08.905Z,5.10
2022-10-13T13:24:54.319Z,3.55
2022-10-13T13:27:40.765Z,7.70
2022-10-13T13:30:26.786Z,5.05
2022-10-13T13:35:58.058Z,5.25
2022-10-13T13:38:44.374Z,12.40
2022-10-13T13:41:31.357Z,11.02
2022-10-13T13:44:16.882Z,7.78
2022-10-13T13:47:03.043Z,6.18
2022-10-13T13:49:50.420Z,4.43
2022-10-13T13:52:35.963Z,5.80
2022-10-13T13:55:22.641Z,11.70
2022-10-13T13:58:09.453Z,6.05
2022-10-13T14:00:55.496Z,8.20
2022-10-13T14:03:41.323Z,6.07
2022-10-13T14:06:27.891Z,5.78
2022-10-13T14:09:13.689Z,5.05
2022-10-13T14:12:00.108Z,9.80
2022-10-13T14:14:45.748Z,7.72
2022-10-13T14:17:33.067Z,10.25
2022-10-13T14:20:19.904Z,1.90
2022-10-13T14:23:05.642Z,5.28
2022-10-13T14:25:51.528Z,10.43
2022-10-13T14:28:45.518Z,6.22
2022-10-13T14:31:32.429Z,3.70
2022-10-13T14:34:19.165Z,7.63
2022-10-13T14:37:04.997Z,5.55
2022-10-13T14:39:50.790Z,5.68
2022-10-13T14:42:36.574Z,5.22
2022-10-13T14:45:23.359Z,9.75
2022-10-13T14:48:09.046Z,9.95
2022-10-13T14:50:54.870Z,5.72
2022-10-13T14:53:43.209Z,15.55
2022-10-13T14:56:30.458Z,3.92
2022-10-13T14:59:16.770Z,4.35
2022-10-13T15:02:03.322Z,7.35
2022-10-13T15:04:48.673Z,9.90
2022-10-13T15:07:36.854Z,7.30
2022-10-13T15:10:26.062Z,4.50
2022-10-13T15:13:12.387Z,5.97
2022-10-13T15:16:02.648Z,7.13
2022-10-13T15:18:49.192Z,9.85
2022-10-13T15:21:34.999Z,6.28
2022-10-13T15:24:21.724Z,5.90
2022-10-13T15:27:10.796Z,13.20
2022-10-13T15:29:56.300Z,7.10
2022-10-13T15:32:41.955Z,7.25
2022-10-13T15:35:31.476Z,8.27
2022-10-13T15:38:18.667Z,7.80
2022-10-13T15:41:07.051Z,9.43
2022-10-13T15:43:53.047Z,7.00
2022-10-13T15:46:49.158Z,7.40
2022-10-13T15:49:45.221Z,5.28
2022-10-13T15:52:34.635Z,7.00
2022-10-13T15:55:20.953Z,5.78
2022-10-13T15:58:11.350Z,10.65
2022-10-13T16:00:59.175Z,6.25
2022-10-13T16:03:45.352Z,11.40
2022-10-13T16:06:33.673Z,9.48
2022-10-13T16:09:19.502Z,8.68
2022-10-13T16:12:05.594Z,5.50
2022-10-13T16:14:52.198Z,4.40
2022-10-13T16:17:38.142Z,8.10
2022-10-13T16:20:23.832Z,6.07
2022-10-13T16:23:09.368Z,7.38
2022-10-13T16:25:54.839Z,9.70
2022-10-13T16:28:40.548Z,4.55
2022-10-13T16:31:26.434Z,7.35
2022-10-13T16:34:11.933Z,5.03
2022-10-13T16:36:57.205Z,9.43
2022-10-13T16:39:44.621Z,3.92
2022-10-13T16:42:33.252Z,9.80
2022-10-13T16:45:21.522Z,9.73
2022-10-13T16:48:16.142Z,4.32
2022-10-13T16:51:06.714Z,10.05
2022-10-13T16:53:55.512Z,9.70
2022-10-13T16:56:43.118Z,7.13
2022-10-13T16:59:28.913Z,6.00
2022-10-13T17:02:15.485Z,9.13
2022-10-13T17:05:01.251Z,7.35
2022-10-13T17:07:46.836Z,11.10
2022-10-13T17:10:33.263Z,9.63
2022-10-13T17:13:19.585Z,8.68
2022-10-13T17:16:05.271Z,11.68
2022-10-13T17:18:50.544Z,17.25
2022-10-13T17:21:37.015Z,10.18
2022-10-13T17:24:24.422Z,5.70
2022-10-13T17:27:10.228Z,9.05
2022-10-13T17:29:56.358Z,5.68
2022-10-13T17:32:42.136Z,6.65
2022-10-13T17:35:27.677Z,6.50
2022-10-13T17:38:15.583Z,5.88
2022-10-13T17:41:02.841Z,7.75
2022-10-13T17:43:49.939Z,4.68
2022-10-13T17:46:38.076Z,4.00
2022-10-13T17:49:24.813Z,10.52
2022-10-13T17:52:10.312Z,3.95
2022-10-13T17:54:56.060Z,7.25
2022-10-13T17:57:42.377Z,4.65
2022-10-13T18:00:28.045Z,8.02
2022-10-13T18:03:13.607Z,5.93
2022-10-13T18:05:59.070Z,9.77
2022-10-13T18:08:44.642Z,5.55
2022-10-13T18:11:30.014Z,5.28
2022-10-13T18:14:15.889Z,7.00
2022-10-13T18:17:03.465Z,7.88
2022-10-13T18:19:50.995Z,21.30
2022-10-13T18:22:36.571Z,16.17
2022-10-13T18:25:24.534Z,9.45
2022-10-13T18:28:09.994Z,5.90
2022-10-13T18:30:55.747Z,8.38
2022-10-13T18:33:41.978Z,8.63
2022-10-13T18:36:35.555Z,10.10
2022-10-13T18:39:28.055Z,7.68
2022-10-13T18:42:13.887Z,8.98
2022-10-13T18:44:59.719Z,9.82
2022-10-13T18:47:45.453Z,14.23
2022-10-13T18:50:31.463Z,9.30
2022-10-13T18:53:18.814Z,13.43
2022-10-13T18:56:10.616Z,8.10
2022-10-13T18:58:59.874Z,11.88
2022-10-13T19:01:46.177Z,8.50
2022-10-13T19:04:32.500Z,7.32
2022-10-13T19:07:19.308Z,12.23
2022-10-13T19:10:06.685Z,8.02
2022-10-13T19:12:52.766Z,8.73
2022-10-13T19:15:39.942Z,11.02
2022-10-13T19:18:25.875Z,8.18
2022-10-13T19:21:12.440Z,8.82
2022-10-13T19:23:59.901Z,7.32
2022-10-13T19:26:45.844Z,8.10
2022-10-13T19:29:33.276Z,8.27
2022-10-13T19:32:20.620Z,4.68
2022-10-13T19:35:06.484Z,7.72
2022-10-13T19:37:52.015Z,8.60
2022-10-13T19:40:42.423Z,8.82
2022-10-13T19:43:27.857Z,6.85
2022-10-13T19:46:14.077Z,12.07
2022-10-13T19:49:00.695Z,15.32
2022-10-13T19:51:47.478Z,12.50
2022-10-13T19:54:36.088Z,11.95
2022-10-13T19:57:22.369Z,8.73
2022-10-13T20:00:09.167Z,20.27
2022-10-13T20:02:58.294Z,9.82
2022-10-13T20:05:44.268Z,14.30
2022-10-13T20:08:30.137Z,8.80
2022-10-13T20:11:23.410Z,10.43
2022-10-13T20:14:09.945Z,9.77
2022-10-13T20:16:58.444Z,8.80
2022-10-13T20:19:44.573Z,8.32
2022-10-13T20:22:30.212Z,7.03
2022-10-13T20:25:19.693Z,9.07
2022-10-13T20:28:06.267Z,12.07
2022-10-13T20:30:51.987Z,11.77
2022-10-13T20:33:37.877Z,7.53
2022-10-13T20:36:25.397Z,5.05
2022-10-13T20:39:10.935Z,6.93
2022-10-13T20:41:56.254Z,5.63
2022-10-13T20:44:42.272Z,4.13
2022-10-13T20:47:28.561Z,7.93
2022-10-13T20:50:14.685Z,5.55
2022-10-13T20:53:00.055Z,7.00
2022-10-13T20:55:54.645Z,12.55
2022-10-13T20:58:40.775Z,2.08
2022-10-13T21:01:26.558Z,4.45
2022-10-13T21:04:12.368Z,3.65
2022-10-13T21:06:57.744Z,3.17
2022-10-13T21:09:43.128Z,3.30
2022-10-13T21:12:28.695Z,4.70
2022-10-13T21:15:14.741Z,2.38
2022-10-13T21:18:00.217Z,5.22
2022-10-13T21:20:45.484Z,5.13
2022-10-13T21:23:30.884Z,6.40
2022-10-13T21:26:21.359Z,5.70
2022-10-13T21:29:07.645Z,5.27
2022-10-13T21:31:53.441Z,5.28
2022-10-13T21:34:38.910Z,3.80
2022-10-13T21:37:24.708Z,8.07
2022-10-13T21:40:10.638Z,3.13
2022-10-13T21:42:56.499Z,4.75
2022-10-13T21:45:42.546Z,9.65
2022-10-13T21:48:27.942Z,10.77
2022-10-13T21:51:18.610Z,6.90
2022-10-13T21:54:11.974Z,6.40
2022-10-13T21:56:57.660Z,10.38
2022-10-13T21:59:43.105Z,8.95
2022-10-13T22:02:28.765Z,4.95
2022-10-13T22:05:14.411Z,6.15
2022-10-13T22:08:00.174Z,7.80
2022-10-13T22:10:45.508Z,7.70
2022-10-13T22:13:30.932Z,5.00
2022-10-13T22:16:22.429Z,4.15
2022-10-13T22:19:07.945Z,7.65
2022-10-13T22:21:54.253Z,7.28
2022-10-13T22:24:39.948Z,4.57
2022-10-13T22:27:25.864Z,5.88
2022-10-13T22:30:12.237Z,7.20
2022-10-13T22:32:57.420Z,5.65
2022-10-13T22:35:43.003Z,14.75
2022-10-13T22:38:28.667Z,5.68
2022-10-13T22:41:16.860Z,2.92
2022-10-13T22:44:04.163Z,5.30
2022-10-13T22:46:49.506Z,9.63
2022-10-13T22:49:34.696Z,11.60
2022-10-13T22:52:22.109Z,6.43
2022-10-13T22:55:10.024Z,4.53
2022-10-13T22:57:56.522Z,7.13
2022-10-13T23:00:41.887Z,6.03
2022-10-13T23:03:27.247Z,4.72
2022-10-13T23:06:20.477Z,5.88
2022-10-13T23:09:09.370Z,7.80
2022-10-13T23:11:59.651Z,4.55
2022-10-13T23:14:46.404Z,6.60
2022-10-13T23:17:31.879Z,7.05
2022-10-13T23:20:17.475Z,6.47
2022-10-13T23:23:03.140Z,6.15
2022-10-13T23:25:48.620Z,5.13
2022-10-13T23:28:35.049Z,5.05
2022-10-13T23:31:20.999Z,6.95
2022-10-13T23:34:06.415Z,6.18
2022-10-13T23:36:52.036Z,3.85
2022-10-13T23:39:37.457Z,8.07
2022-10-13T23:42:22.960Z,5.85
2022-10-13T23:45:09.128Z,7.63
2022-10-13T23:47:54.669Z,7.78
2022-10-13T23:50:40.748Z,5.53
2022-10-13T23:53:26.070Z,12.43
2022-10-13T23:56:12.571Z,8.15
2022-10-13T23:58:58.250Z,4.63
